Time;durP1;ratioP1;P1;durP2;ratioP2;P2;SDS_P1;SDS_P2;PMS_P1;PMS_P2;Temp;Humidity;BMP_temperature;BMP_pressure;BME280_temperature;BME280_humidity;BME280_pressure;Samples;Min_cycle;Max_cycle;Signal;HPM_P1;HPM_P2
2022/05/17 00:05:36;;;;;;;3.50;3.20;;;;;;;;;;12576816;28;20265;-77
2022/05/17 00:11:38;;;;;;;;;;;;;;;;;;12594637;28;20212;-77
2022/05/17 00:17:39;;;;;;;3.13;2.83;;;;;;;;;;12592109;28;20285;-77
2022/05/17 00:23:42;;;;;;;3.70;3.40;;;;;;;;;;12593588;28;20071;-77
2022/05/17 00:29:44;;;;;;;2.63;2.42;;;;;;;;;;12575399;28;20032;-77
2022/05/17 00:35:46;;;;;;;3.28;2.80;;;;;;;;;;12575352;28;20485;-77
2022/05/17 00:41:47;;;;;;;4.15;3.15;;;;;;;;;;12593133;28;20036;-77
2022/05/17 00:47:51;;;;;;;3.13;2.88;;;;;;;;;;12593089;28;20036;-77
2022/05/17 00:53:54;;;;;;;3.85;2.80;;;;;;;;;;12593007;28;20048;-77
2022/05/17 00:59:58;;;;;;;3.45;3.15;;;;;;;;;;12592620;28;20036;-77
2022/05/17 01:06:01;;;;;;;3.13;2.92;;;;;;;;;;12584193;28;20535;-77
2022/05/17 01:12:02;;;;;;;3.80;3.50;;;;;;;;;;12584229;28;20056;-77
2022/05/17 01:18:05;;;;;;;3.50;3.20;;;;;;;;;;12601524;28;20482;-77
2022/05/17 01:24:07;;;;;;;5.28;4.05;;;;;;;;;;12599313;28;20469;-77
2022/05/17 01:30:15;;;;;;;4.90;4.40;;;;;;;;;;12599688;28;20055;-77
2022/05/17 01:36:21;;;;;;;4.07;3.78;;;;;;;;;;12582953;28;20036;-77
2022/05/17 01:42:22;;;;;;;5.80;5.20;;;;;;;;;;12582625;28;20048;-77
2022/05/17 01:48:24;;;;;;;4.77;4.20;;;;;;;;;;12582658;28;20383;-77
2022/05/17 01:54:26;;;;;;;4.65;4.10;;;;;;;;;;12581863;28;20279;-77
2022/05/17 02:00:28;;;;;;;3.80;3.22;;;;;;;;;;12599388;28;20029;-77
2022/05/17 02:06:29;;;;;;;3.40;3.10;;;;;;;;;;12599166;28;20202;-77
2022/05/17 02:12:31;;;;;;;3.30;3.10;;;;;;;;;;12597398;28;20052;-77
2022/05/17 02:18:33;;;;;;;3.60;3.30;;;;;;;;;;12598803;28;20032;-77
2022/05/17 02:24:35;;;;;;;3.00;2.78;;;;;;;;;;12598383;28;20036;-77
2022/05/17 02:30:37;;;;;;;3.83;3.15;;;;;;;;;;12597536;28;20040;-77
2022/05/17 02:36:38;;;;;;;2.97;2.78;;;;;;;;;;12580124;28;20044;-78
2022/05/17 02:42:40;;;;;;;2.83;2.50;;;;;;;;;;12597327;28;20505;-77
2022/05/17 02:48:42;;;;;;;4.65;4.25;;;;;;;;;;12579271;28;20051;-77
2022/05/17 02:54:44;;;;;;;4.15;3.58;;;;;;;;;;12596752;28;20032;-77
2022/05/17 03:00:46;;;;;;;2.90;2.70;;;;;;;;;;12596144;28;20032;-77
2022/05/17 03:06:48;;;;;;;3.17;2.87;;;;;;;;;;12578397;28;20325;-77
2022/05/17 03:12:50;;;;;;;3.47;3.25;;;;;;;;;;12596754;28;20275;-77
2022/05/17 03:18:52;;;;;;;;;;;;;;;;;;12578187;28;20033;-77
2022/05/17 03:24:53;;;;;;;3.90;3.60;;;;;;;;;;12577723;28;19912;-77
2022/05/17 03:30:55;;;;;;;4.45;3.13;;;;;;;;;;12577577;28;20040;-78
2022/05/17 03:36:57;;;;;;;4.03;3.72;;;;;;;;;;12595293;28;20029;-77
2022/05/17 03:42:59;;;;;;;3.65;3.35;;;;;;;;;;12576428;28;20036;-77
2022/05/17 03:49:01;;;;;;;;;;;;;;;;;;12577923;28;20040;-78
2022/05/17 03:55:04;;;;;;;3.63;3.33;;;;;;;;;;12576929;28;19916;-77
2022/05/17 04:01:06;;;;;;;3.03;2.83;;;;;;;;;;12593178;28;20032;-77
2022/05/17 04:07:08;;;;;;;3.67;3.35;;;;;;;;;;12592986;28;20436;-78
2022/05/17 04:13:10;;;;;;;3.88;3.58;;;;;;;;;;12577022;28;20043;-78
2022/05/17 04:19:15;;;;;;;4.20;3.80;;;;;;;;;;12576281;28;20036;-78
2022/05/17 04:25:19;;;;;;;4.47;4.07;;;;;;;;;;12576251;28;20047;-78
2022/05/17 04:31:21;;;;;;;4.82;3.40;;;;;;;;;;12591801;28;20040;-78
2022/05/17 04:37:23;;;;;;;3.95;3.53;;;;;;;;;;12581780;28;20047;-78
2022/05/17 04:43:25;;;;;;;3.55;2.90;;;;;;;;;;12602409;28;20033;-76
2022/05/17 04:49:27;;;;;;;4.68;4.28;;;;;;;;;;12603192;28;20041;-78
2022/05/17 04:55:29;;;;;;;4.75;4.15;;;;;;;;;;12601094;28;20028;-78
2022/05/17 05:01:31;;;;;;;4.95;4.55;;;;;;;;;;12584486;28;20033;-77
2022/05/17 05:07:33;;;;;;;3.97;3.65;;;;;;;;;;12584026;28;20448;-77
2022/05/17 05:13:35;;;;;;;3.88;3.45;;;;;;;;;;12601632;28;20396;-78
2022/05/17 05:19:37;;;;;;;4.00;3.67;;;;;;;;;;12601626;28;20051;-77
2022/05/17 05:25:38;;;;;;;5.07;4.47;;;;;;;;;;12600646;28;20047;-77
2022/05/17 05:31:40;;;;;;;3.90;3.60;;;;;;;;;;12599108;28;20040;-77
2022/05/17 05:37:42;;;;;;;4.75;3.70;;;;;;;;;;12567398;28;20025;-77
2022/05/17 05:43:44;;;;;;;5.55;3.78;;;;;;;;;;12541649;28;20060;-78
2022/05/17 05:49:46;;;;;;;4.95;4.55;;;;;;;;;;12528677;28;20048;-78
2022/05/17 05:55:57;;;;;;;4.03;3.63;;;;;;;;;;12546403;28;20032;-77
2022/05/17 06:01:59;;;;;;;4.40;3.28;;;;;;;;;;12533773;28;20029;-79
2022/05/17 06:08:00;;;;;;;3.70;3.35;;;;;;;;;;12541685;28;20414;-79
2022/05/17 06:14:02;;;;;;;3.95;3.65;;;;;;;;;;12520563;28;20037;-78
2022/05/17 06:20:05;;;;;;;2.90;2.63;;;;;;;;;;12538090;28;20089;-80
2022/05/17 06:26:07;;;;;;;2.63;2.03;;;;;;;;;;12537460;28;20031;-78
2022/05/17 06:32:10;;;;;;;2.03;1.70;;;;;;;;;;12526988;28;20153;-79
2022/05/17 06:38:11;;;;;;;1.70;1.60;;;;;;;;;;12525076;28;20029;-78
2022/05/17 06:44:13;;;;;;;2.40;2.03;;;;;;;;;;12519275;28;20406;-80
2022/05/17 06:50:15;;;;;;;1.88;1.75;;;;;;;;;;12521135;28;20067;-79
2022/05/17 06:56:17;;;;;;;2.20;1.80;;;;;;;;;;12513021;28;20052;-80
2022/05/17 07:02:18;;;;;;;1.90;1.80;;;;;;;;;;12532099;28;20032;-79
2022/05/17 07:08:20;;;;;;;2.75;2.40;;;;;;;;;;12535354;28;20506;-80
2022/05/17 07:14:22;;;;;;;2.75;2.08;;;;;;;;;;12499793;28;20052;-79
2022/05/17 07:20:24;;;;;;;1.85;1.70;;;;;;;;;;12524136;28;20029;-80
2022/05/17 07:26:25;;;;;;;2.40;2.20;;;;;;;;;;12510024;28;20025;-79
2022/05/17 07:32:27;;;;;;;1.88;1.40;;;;;;;;;;12532069;28;20041;-79
2022/05/17 07:38:29;;;;;;;3.05;1.90;;;;;;;;;;12480761;28;20029;-80
2022/05/17 07:44:31;;;;;;;1.83;1.33;;;;;;;;;;12517981;28;20466;-80
2022/05/17 07:50:33;;;;;;;1.52;1.42;;;;;;;;;;12521043;28;20529;-78
2022/05/17 07:56:35;;;;;;;1.30;1.20;;;;;;;;;;12525082;28;20033;-78
2022/05/17 08:02:36;;;;;;;1.88;1.60;;;;;;;;;;12535537;28;20032;-81
2022/05/17 08:08:39;;;;;;;2.28;2.08;;;;;;;;;;12490179;28;20048;-81
2022/05/17 08:14:41;;;;;;;1.90;1.35;;;;;;;;;;12519838;28;20409;-80
2022/05/17 08:20:42;;;;;;;1.40;1.30;;;;;;;;;;12516402;28;20482;-81
2022/05/17 08:33:15;;;;;;;1.50;1.40;;;;;;;;;;12527408;28;19920;-80
2022/05/17 08:39:17;;;;;;;2.00;1.90;;;;;;;;;;12514979;28;20510;-83
2022/05/17 08:45:23;;;;;;;1.15;1.15;;;;;;;;;;12531030;28;20033;-83
2022/05/17 08:51:29;;;;;;;1.50;1.23;;;;;;;;;;12526139;28;20067;-82
2022/05/17 08:57:36;;;;;;;2.03;1.30;;;;;;;;;;12527845;28;20032;-82
2022/05/17 09:03:51;;;;;;;3.15;2.50;;;;;;;;;;12514819;28;20481;-83
2022/05/17 09:10:02;;;;;;;1.92;1.52;;;;;;;;;;12535112;28;20056;-78
2022/05/17 09:16:05;;;;;;;2.67;2.47;;;;;;;;;;12520974;28;20025;-87
2022/05/17 09:22:06;;;;;;;2.88;2.25;;;;;;;;;;12523237;28;20418;-79
2022/05/17 09:28:08;;;;;;;;;;;;;;;;;;12533654;28;20037;-80
2022/05/17 09:34:09;;;;;;;3.00;2.70;;;;;;;;;;12539403;28;19968;-77
2022/05/17 09:40:14;;;;;;;2.00;1.90;;;;;;;;;;12538785;28;20410;-79
2022/05/17 09:46:17;;;;;;;1.75;1.65;;;;;;;;;;12544165;28;20040;-78
2022/05/17 09:52:35;;;;;;;2.03;1.92;;;;;;;;;;12541603;28;20044;-77
2022/05/17 09:58:38;;;;;;;1.95;1.75;;;;;;;;;;12534003;28;20135;-79
2022/05/17 10:04:42;;;;;;;2.53;1.83;;;;;;;;;;12539615;28;20029;-79
2022/05/17 10:10:45;;;;;;;1.98;1.70;;;;;;;;;;12536625;28;20049;-83
2022/05/17 10:16:52;;;;;;;3.17;2.85;;;;;;;;;;12537136;28;20052;-82
2022/05/17 10:23:03;;;;;;;2.92;2.40;;;;;;;;;;12530574;28;20025;-79
2022/05/17 10:29:09;;;;;;;2.40;2.20;;;;;;;;;;12531045;28;20063;-84
2022/05/17 10:35:16;;;;;;;4.13;2.97;;;;;;;;;;12529201;28;20366;-83
2022/05/17 10:41:17;;;;;;;2.78;2.58;;;;;;;;;;12524860;28;20037;-84
2022/05/17 10:47:25;;;;;;;1.85;1.70;;;;;;;;;;12519745;28;20042;-81
2022/05/17 10:53:39;;;;;;;2.33;1.80;;;;;;;;;;12538151;28;20056;-87
2022/05/17 10:59:45;;;;;;;3.03;2.10;;;;;;;;;;12534590;28;20485;-80
2022/05/17 11:06:05;;;;;;;2.42;2.20;;;;;;;;;;12527882;28;20032;-80
2022/05/17 11:12:09;;;;;;;2.75;2.05;;;;;;;;;;12533270;28;20051;-82
2022/05/17 11:18:34;;;;;;;2.92;2.63;;;;;;;;;;12536495;28;20029;-80
2022/05/17 11:24:39;;;;;;;2.50;2.30;;;;;;;;;;12502146;28;20029;-79
2022/05/17 11:30:53;;;;;;;2.30;2.10;;;;;;;;;;12544346;28;20048;-80
2022/05/17 11:36:56;;;;;;;4.32;3.47;;;;;;;;;;12544633;28;20036;-80
2022/05/17 11:49:28;;;;;;;2.67;2.47;;;;;;;;;;12526765;28;20041;-78
2022/05/17 11:55:30;;;;;;;2.42;1.90;;;;;;;;;;12544775;28;20036;-78
2022/05/17 12:01:31;;;;;;;1.80;1.70;;;;;;;;;;12525672;28;20037;-78
2022/05/17 12:07:33;;;;;;;1.60;1.50;;;;;;;;;;12544111;28;20056;-78
2022/05/17 12:13:40;;;;;;;1.48;1.38;;;;;;;;;;12530302;28;20037;-78
2022/05/17 12:19:53;;;;;;;1.90;1.50;;;;;;;;;;12493888;28;20026;-78
2022/05/17 12:26:01;;;;;;;2.30;1.73;;;;;;;;;;12492198;28;20041;-78
2022/05/17 12:32:10;;;;;;;1.90;1.80;;;;;;;;;;12475533;28;20044;-78
2022/05/17 12:44:33;;;;;;;1.67;1.57;;;;;;;;;;12493854;28;20046;-78
2022/05/17 12:50:41;;;;;;;1.98;1.85;;;;;;;;;;12493665;28;20054;-78
2022/05/17 12:56:43;;;;;;;1.85;1.65;;;;;;;;;;12479445;28;20405;-79
2022/05/17 13:02:50;;;;;;;2.38;1.88;;;;;;;;;;12501898;28;20044;-78
2022/05/17 13:08:58;;;;;;;1.70;1.60;;;;;;;;;;12520549;28;20045;-78
2022/05/17 13:15:04;;;;;;;2.38;1.63;;;;;;;;;;12551502;28;20029;-78
2022/05/17 13:21:09;;;;;;;1.85;1.67;;;;;;;;;;12550062;28;20044;-78
2022/05/17 13:27:30;;;;;;;1.00;1.00;;;;;;;;;;12533997;28;20147;-78
2022/05/17 13:33:34;;;;;;;1.50;1.40;;;;;;;;;;12551010;28;20040;-78
2022/05/17 13:39:41;;;;;;;2.35;2.15;;;;;;;;;;12533616;28;20377;-78
2022/05/17 13:45:56;;;;;;;1.70;1.60;;;;;;;;;;12515746;28;20060;-78
2022/05/17 13:52:12;;;;;;;1.45;1.30;;;;;;;;;;12549866;28;20037;-78
2022/05/17 13:58:14;;;;;;;3.38;1.73;;;;;;;;;;12515834;28;20033;-78
2022/05/17 14:04:25;;;;;;;1.70;1.60;;;;;;;;;;12532167;28;20029;-78
2022/05/17 14:17:00;;;;;;;2.60;1.58;;;;;;;;;;12549456;28;20221;-78
2022/05/17 14:23:01;;;;;;;1.60;1.50;;;;;;;;;;12531605;28;20029;-78
2022/05/17 14:29:03;;;;;;;2.53;2.22;;;;;;;;;;12530697;28;20037;-78
2022/05/17 14:35:05;;;;;;;1.73;1.63;;;;;;;;;;12547352;28;20039;-78
2022/05/17 14:41:07;;;;;;;2.00;1.90;;;;;;;;;;12548068;28;20044;-79
2022/05/17 14:47:13;;;;;;;2.47;1.75;;;;;;;;;;12547849;28;20040;-78
2022/05/17 14:53:15;;;;;;;2.65;2.20;;;;;;;;;;12529731;28;20176;-78
2022/05/17 14:59:16;;;;;;;1.92;1.83;;;;;;;;;;12547430;28;20025;-78
2022/05/17 15:05:19;;;;;;;1.88;1.77;;;;;;;;;;12546757;28;20029;-78
2022/05/17 15:11:22;;;;;;;2.58;2.13;;;;;;;;;;12546637;28;20063;-80
2022/05/17 15:17:24;;;;;;;2.17;2.03;;;;;;;;;;12546074;28;20029;-81
2022/05/17 15:23:32;;;;;;;2.30;2.10;;;;;;;;;;12545409;28;20033;-81
2022/05/17 15:29:34;;;;;;;4.10;2.33;;;;;;;;;;12545620;28;20053;-81
2022/05/17 15:35:39;;;;;;;2.50;2.22;;;;;;;;;;12543848;28;20033;-81
2022/05/17 15:41:40;;;;;;;2.10;1.92;;;;;;;;;;12545097;28;20048;-81
2022/05/17 15:54:04;;;;;;;2.25;2.05;;;;;;;;;;12545468;28;20032;-82
2022/05/17 16:00:07;;;;;;;2.40;2.20;;;;;;;;;;12510494;28;20398;-85
2022/05/17 16:06:14;;;;;;;2.80;2.60;;;;;;;;;;12528223;28;20469;-83
2022/05/17 16:12:16;;;;;;;2.05;1.88;;;;;;;;;;12493631;28;20042;-74
2022/05/17 16:18:18;;;;;;;2.17;1.90;;;;;;;;;;12494240;28;20032;-77
2022/05/17 16:24:20;;;;;;;1.85;1.75;;;;;;;;;;12493605;28;20041;-76
2022/05/17 16:30:24;;;;;;;2.08;1.88;;;;;;;;;;12478315;28;20053;-75
2022/05/17 16:36:26;;;;;;;2.05;1.88;;;;;;;;;;12503440;28;20033;-76
2022/05/17 16:42:29;;;;;;;2.42;1.98;;;;;;;;;;12504924;28;20038;-79
2022/05/17 16:48:31;;;;;;;1.88;1.70;;;;;;;;;;12502351;28;20520;-78
2022/05/17 16:54:33;;;;;;;3.72;2.10;;;;;;;;;;12503470;28;20044;-77
2022/05/17 17:00:35;;;;;;;2.97;1.65;;;;;;;;;;12504122;28;20033;-79
2022/05/17 17:06:37;;;;;;;2.40;1.80;;;;;;;;;;12503444;28;20037;-77
2022/05/17 17:12:40;;;;;;;1.90;1.80;;;;;;;;;;12485142;28;20045;-77
2022/05/17 17:18:42;;;;;;;2.28;1.75;;;;;;;;;;12504693;28;20037;-82
2022/05/17 17:24:44;;;;;;;2.22;1.60;;;;;;;;;;12502794;28;20040;-87
2022/05/17 17:30:48;;;;;;;3.22;2.50;;;;;;;;;;12502245;28;20060;-85
2022/05/17 17:43:11;;;;;;;3.47;2.20;;;;;;;;;;12501125;28;20049;-83
2022/05/17 17:49:14;;;;;;;2.58;2.20;;;;;;;;;;12502600;28;20044;-85
2022/05/17 17:55:17;;;;;;;4.05;2.40;;;;;;;;;;12484878;28;20033;-86
2022/05/17 18:01:18;;;;;;;6.22;3.60;;;;;;;;;;12502205;28;20033;-82
2022/05/17 18:07:20;;;;;;;4.22;3.60;;;;;;;;;;12506299;28;20052;-82
2022/05/17 18:13:26;;;;;;;3.65;3.20;;;;;;;;;;12549736;28;20517;-82
2022/05/17 18:19:28;;;;;;;3.08;2.78;;;;;;;;;;12531392;28;20048;-80
2022/05/17 18:25:30;;;;;;;3.25;2.95;;;;;;;;;;12549461;28;20029;-81
2022/05/17 18:31:31;;;;;;;3.63;3.03;;;;;;;;;;12549460;28;20052;-81
2022/05/17 18:37:34;;;;;;;2.75;2.47;;;;;;;;;;12549643;28;20028;-81
2022/05/17 18:43:36;;;;;;;3.50;3.15;;;;;;;;;;12548213;28;20401;-81
2022/05/17 18:49:38;;;;;;;3.40;2.63;;;;;;;;;;12548385;28;20044;-81
2022/05/17 18:55:41;;;;;;;3.08;2.70;;;;;;;;;;12547032;28;20037;-83
2022/05/17 19:01:43;;;;;;;3.35;2.63;;;;;;;;;;12529926;28;20025;-81
2022/05/17 19:14:07;;;;;;;2.47;2.28;;;;;;;;;;12528970;28;20041;-80
2022/05/17 19:20:09;;;;;;;2.42;1.88;;;;;;;;;;12545132;28;20041;-81
2022/05/17 19:26:11;;;;;;;2.10;1.70;;;;;;;;;;12545962;28;20040;-81
2022/05/17 19:32:24;;;;;;;2.15;1.90;;;;;;;;;;12545574;28;20044;-81
2022/05/17 19:44:46;;;;;;;1.92;1.80;;;;;;;;;;12527389;28;20425;-81
2022/05/17 19:50:48;;;;;;;;;;;;;;;;;;12545616;28;20043;-81
2022/05/17 19:56:50;;;;;;;2.03;1.90;;;;;;;;;;12543713;28;19909;-81
2022/05/17 20:02:52;;;;;;;3.38;2.35;;;;;;;;;;12526840;28;20292;-82
2022/05/17 20:08:53;;;;;;;2.15;1.60;;;;;;;;;;12543290;28;20053;-82
2022/05/17 20:14:55;;;;;;;;;;;;;;;;;;12510959;28;20063;-81
2022/05/17 20:20:57;;;;;;;2.33;2.13;;;;;;;;;;12542818;28;19915;-81
2022/05/17 20:26:58;;;;;;;;;;;;;;;;;;12544877;28;20032;-81
2022/05/17 20:33:02;;;;;;;2.90;1.95;;;;;;;;;;12544233;28;20289;-81
2022/05/17 20:39:05;;;;;;;2.13;1.60;;;;;;;;;;12510311;28;20037;-81
2022/05/17 20:45:06;;;;;;;;;;;;;;;;;;12544227;28;20420;-80
2022/05/17 20:51:08;;;;;;;1.93;1.77;;;;;;;;;;12525587;28;19924;-81
2022/05/17 20:57:09;;;;;;;;;;;;;;;;;;12526282;28;20029;-81
2022/05/17 21:03:11;;;;;;;2.00;1.77;;;;;;;;;;12543168;28;20388;-81
2022/05/17 21:09:13;;;;;;;2.78;2.10;;;;;;;;;;12543360;28;20045;-80
2022/05/17 21:15:16;;;;;;;2.45;2.25;;;;;;;;;;12542714;28;20490;-80
2022/05/17 21:21:17;;;;;;;1.92;1.65;;;;;;;;;;12551059;28;20036;-80
2022/05/17 21:27:19;;;;;;;;;;;;;;;;;;12534498;28;20033;-80
2022/05/17 21:33:21;;;;;;;3.80;2.50;;;;;;;;;;12551873;28;19940;-80
2022/05/17 21:39:32;;;;;;;2.45;2.25;;;;;;;;;;12534464;28;20045;-80
2022/05/17 21:45:33;;;;;;;2.88;2.58;;;;;;;;;;12532938;28;20029;-81
2022/05/17 21:51:35;;;;;;;3.28;3.00;;;;;;;;;;12551775;28;20050;-81
2022/05/17 21:57:38;;;;;;;4.53;3.65;;;;;;;;;;12550814;28;20037;-81
2022/05/17 22:03:40;;;;;;;3.70;3.40;;;;;;;;;;12532107;28;20040;-81
2022/05/17 22:09:42;;;;;;;4.38;4.03;;;;;;;;;;12549472;28;20049;-81
2022/05/17 22:15:44;;;;;;;4.10;3.80;;;;;;;;;;12549541;28;20044;-81
2022/05/17 22:21:46;;;;;;;5.07;4.03;;;;;;;;;;12531624;28;20041;-81
2022/05/17 22:27:49;;;;;;;4.20;3.70;;;;;;;;;;12531313;28;20029;-81
2022/05/17 22:33:51;;;;;;;3.50;3.30;;;;;;;;;;12547999;28;20418;-81
2022/05/17 22:39:53;;;;;;;4.10;3.72;;;;;;;;;;12531550;28;20040;-81
2022/05/17 22:52:15;;;;;;;3.92;3.63;;;;;;;;;;12547632;28;20053;-81
2022/05/17 22:58:17;;;;;;;3.80;3.50;;;;;;;;;;12530344;28;20028;-81
2022/05/17 23:04:19;;;;;;;3.95;3.55;;;;;;;;;;12547981;28;20033;-81
2022/05/17 23:10:20;;;;;;;;;;;;;;;;;;12547667;28;20049;-81
2022/05/17 23:16:22;;;;;;;3.65;3.35;;;;;;;;;;12546841;28;20293;-81
2022/05/17 23:22:24;;;;;;;4.95;4.25;;;;;;;;;;12528577;28;20351;-81
2022/05/17 23:28:36;;;;;;;4.10;3.70;;;;;;;;;;12546924;28;20477;-81
2022/05/17 23:34:38;;;;;;;3.58;3.28;;;;;;;;;;12528016;28;20029;-81
2022/05/17 23:40:40;;;;;;;4.85;4.45;;;;;;;;;;12545496;28;20041;-85
2022/05/17 23:46:41;;;;;;;;;;;;;;;;;;12528231;28;20037;-85
2022/05/17 23:52:43;;;;;;;4.68;4.28;;;;;;;;;;12527696;28;19924;-85
2022/05/17 23:58:45;;;;;;;3.60;3.35;;;;;;;;;;12527451;28;20032;-86
